Eustis, Florida
Current Conditions -  °F | °C
As of 7:53 AM on Wednesday 22 Oct 2014 (Local Time) from KLEE Reporting Station
Clear Clear  
Wind Chill: 64°   Ceiling: Unl
Heat Index: 64°   Visibility: 10mi
Dew Point: 60°   Wind: 7mph
Humidity: 87%   Direction: 10°N
Pressure: 29.99"   Gusts: NA
Location:  28.85°N, 81.68°W
Report Text: KLEE 221153Z 01006KT 10SM CLR 18/16 A2999 RMK AO2 SLP155 T01780156 10200 20172 53014
Loading
Personal Weather Stations






























Interactive Weather Map
Tropical Storm Tracking
New forecast layout! Learn more

10-Day Weather Forecast

Advertisements
Track Severe Weather on mobile